sensor_id;sensor_type;location;lat;lon;timestamp;P1;durP1;ratioP1;P2;durP2;ratioP2
54139;SDS011;40046;53.254;5.900;2023-06-26T00:00:34;10.45;;;8.68;;
54139;SDS011;40046;53.254;5.900;2023-06-26T00:03:02;10.55;;;9.15;;
54139;SDS011;40046;53.254;5.900;2023-06-26T00:05:28;10.30;;;9.23;;
54139;SDS011;40046;53.254;5.900;2023-06-26T00:07:55;9.95;;;9.02;;
54139;SDS011;40046;53.254;5.900;2023-06-26T00:10:28;10.68;;;9.50;;
54139;SDS011;40046;53.254;5.900;2023-06-26T00:12:54;10.30;;;8.85;;
54139;SDS011;40046;53.254;5.900;2023-06-26T00:15:21;11.23;;;9.55;;
54139;SDS011;40046;53.254;5.900;2023-06-26T00:17:47;10.25;;;9.05;;
54139;SDS011;40046;53.254;5.900;2023-06-26T00:20:13;11.02;;;9.93;;
54139;SDS011;40046;53.254;5.900;2023-06-26T00:22:42;10.32;;;9.23;;
54139;SDS011;40046;53.254;5.900;2023-06-26T00:25:08;12.15;;;10.05;;
54139;SDS011;40046;53.254;5.900;2023-06-26T00:27:34;18.58;;;9.88;;
54139;SDS011;40046;53.254;5.900;2023-06-26T00:30:00;10.52;;;9.23;;
54139;SDS011;40046;53.254;5.900;2023-06-26T00:32:26;11.38;;;9.45;;
54139;SDS011;40046;53.254;5.900;2023-06-26T00:34:52;11.75;;;9.55;;
54139;SDS011;40046;53.254;5.900;2023-06-26T00:37:19;9.77;;;8.77;;
54139;SDS011;40046;53.254;5.900;2023-06-26T00:39:46;10.73;;;8.95;;
54139;SDS011;40046;53.254;5.900;2023-06-26T00:42:12;9.18;;;8.27;;
54139;SDS011;40046;53.254;5.900;2023-06-26T00:44:39;10.18;;;9.20;;
54139;SDS011;40046;53.254;5.900;2023-06-26T00:47:05;11.68;;;9.15;;
54139;SDS011;40046;53.254;5.900;2023-06-26T00:49:31;13.82;;;10.82;;
54139;SDS011;40046;53.254;5.900;2023-06-26T00:51:58;12.27;;;8.98;;
54139;SDS011;40046;53.254;5.900;2023-06-26T00:54:24;10.85;;;9.75;;
54139;SDS011;40046;53.254;5.900;2023-06-26T00:56:50;10.75;;;9.35;;
54139;SDS011;40046;53.254;5.900;2023-06-26T00:59:16;14.80;;;9.52;;
54139;SDS011;40046;53.254;5.900;2023-06-26T01:01:43;10.95;;;9.32;;
54139;SDS011;40046;53.254;5.900;2023-06-26T01:04:09;11.43;;;10.23;;
54139;SDS011;40046;53.254;5.900;2023-06-26T01:06:43;11.82;;;9.45;;
54139;SDS011;40046;53.254;5.900;2023-06-26T01:09:15;12.57;;;10.00;;
54139;SDS011;40046;53.254;5.900;2023-06-26T01:11:41;12.60;;;9.95;;
54139;SDS011;40046;53.254;5.900;2023-06-26T01:14:07;10.88;;;9.50;;
54139;SDS011;40046;53.254;5.900;2023-06-26T01:16:34;11.35;;;10.15;;
54139;SDS011;40046;53.254;5.900;2023-06-26T01:19:01;10.65;;;9.52;;
54139;SDS011;40046;53.254;5.900;2023-06-26T01:21:27;10.90;;;9.80;;
54139;SDS011;40046;53.254;5.900;2023-06-26T01:26:25;10.85;;;9.75;;
54139;SDS011;40046;53.254;5.900;2023-06-26T01:28:53;11.45;;;9.55;;
54139;SDS011;40046;53.254;5.900;2023-06-26T01:31:19;10.07;;;9.07;;
54139;SDS011;40046;53.254;5.900;2023-06-26T01:33:46;10.48;;;9.32;;
54139;SDS011;40046;53.254;5.900;2023-06-26T01:36:13;10.40;;;8.93;;
54139;SDS011;40046;53.254;5.900;2023-06-26T01:38:39;12.23;;;11.13;;
54139;SDS011;40046;53.254;5.900;2023-06-26T01:41:05;11.73;;;9.57;;
54139;SDS011;40046;53.254;5.900;2023-06-26T01:46:09;12.18;;;10.27;;
54139;SDS011;40046;53.254;5.900;2023-06-26T01:48:49;11.07;;;10.05;;
54139;SDS011;40046;53.254;5.900;2023-06-26T01:51:18;11.17;;;10.00;;
54139;SDS011;40046;53.254;5.900;2023-06-26T01:53:50;14.90;;;10.82;;
54139;SDS011;40046;53.254;5.900;2023-06-26T01:56:18;11.90;;;10.70;;
54139;SDS011;40046;53.254;5.900;2023-06-26T01:58:45;10.73;;;9.65;;
54139;SDS011;40046;53.254;5.900;2023-06-26T02:01:12;11.88;;;10.65;;
54139;SDS011;40046;53.254;5.900;2023-06-26T02:03:38;14.45;;;11.13;;
54139;SDS011;40046;53.254;5.900;2023-06-26T02:06:04;11.98;;;9.82;;
54139;SDS011;40046;53.254;5.900;2023-06-26T02:08:30;14.55;;;11.07;;
54139;SDS011;40046;53.254;5.900;2023-06-26T02:10:57;11.65;;;10.45;;
54139;SDS011;40046;53.254;5.900;2023-06-26T02:13:23;12.85;;;11.55;;
54139;SDS011;40046;53.254;5.900;2023-06-26T02:15:49;11.75;;;10.55;;
54139;SDS011;40046;53.254;5.900;2023-06-26T02:18:15;13.40;;;10.88;;
54139;SDS011;40046;53.254;5.900;2023-06-26T02:20:42;11.95;;;10.52;;
54139;SDS011;40046;53.254;5.900;2023-06-26T02:23:09;11.95;;;10.75;;
54139;SDS011;40046;53.254;5.900;2023-06-26T02:25:35;13.40;;;11.65;;
54139;SDS011;40046;53.254;5.900;2023-06-26T02:28:01;12.60;;;11.30;;
54139;SDS011;40046;53.254;5.900;2023-06-26T02:30:27;13.80;;;12.40;;
54139;SDS011;40046;53.254;5.900;2023-06-26T02:32:53;11.85;;;10.75;;
54139;SDS011;40046;53.254;5.900;2023-06-26T02:35:20;11.43;;;10.32;;
54139;SDS011;40046;53.254;5.900;2023-06-26T02:37:46;13.45;;;11.75;;
54139;SDS011;40046;53.254;5.900;2023-06-26T02:40:12;12.70;;;11.38;;
54139;SDS011;40046;53.254;5.900;2023-06-26T02:42:40;12.57;;;11.32;;
54139;SDS011;40046;53.254;5.900;2023-06-26T02:45:06;16.23;;;12.68;;
54139;SDS011;40046;53.254;5.900;2023-06-26T02:47:33;13.07;;;11.73;;
54139;SDS011;40046;53.254;5.900;2023-06-26T02:49:59;13.20;;;11.70;;
54139;SDS011;40046;53.254;5.900;2023-06-26T02:52:38;13.45;;;11.38;;
54139;SDS011;40046;53.254;5.900;2023-06-26T02:55:04;13.38;;;9.73;;
54139;SDS011;40046;53.254;5.900;2023-06-26T02:57:31;12.98;;;10.63;;
54139;SDS011;40046;53.254;5.900;2023-06-26T02:59:58;11.85;;;10.65;;
54139;SDS011;40046;53.254;5.900;2023-06-26T03:02:24;13.40;;;10.90;;
54139;SDS011;40046;53.254;5.900;2023-06-26T03:04:52;12.27;;;10.73;;
54139;SDS011;40046;53.254;5.900;2023-06-26T03:07:18;12.63;;;9.73;;
54139;SDS011;40046;53.254;5.900;2023-06-26T03:09:44;15.85;;;10.13;;
54139;SDS011;40046;53.254;5.900;2023-06-26T03:12:11;13.55;;;10.98;;
54139;SDS011;40046;53.254;5.900;2023-06-26T03:14:38;14.07;;;10.68;;
54139;SDS011;40046;53.254;5.900;2023-06-26T03:17:04;16.90;;;11.30;;
54139;SDS011;40046;53.254;5.900;2023-06-26T03:19:33;13.20;;;11.82;;
54139;SDS011;40046;53.254;5.900;2023-06-26T03:22:25;15.18;;;12.25;;
54139;SDS011;40046;53.254;5.900;2023-06-26T03:24:52;13.57;;;12.02;;
54139;SDS011;40046;53.254;5.900;2023-06-26T03:27:18;17.02;;;11.20;;
54139;SDS011;40046;53.254;5.900;2023-06-26T03:29:46;17.90;;;11.95;;
54139;SDS011;40046;53.254;5.900;2023-06-26T03:32:12;19.80;;;12.10;;
54139;SDS011;40046;53.254;5.900;2023-06-26T03:34:38;17.95;;;11.32;;
54139;SDS011;40046;53.254;5.900;2023-06-26T03:37:05;17.08;;;12.10;;
54139;SDS011;40046;53.254;5.900;2023-06-26T03:39:32;18.17;;;12.68;;
54139;SDS011;40046;53.254;5.900;2023-06-26T03:41:58;17.58;;;13.15;;
54139;SDS011;40046;53.254;5.900;2023-06-26T03:44:26;22.45;;;13.15;;
54139;SDS011;40046;53.254;5.900;2023-06-26T03:46:52;23.67;;;13.68;;
54139;SDS011;40046;53.254;5.900;2023-06-26T03:49:19;20.65;;;13.05;;
54139;SDS011;40046;53.254;5.900;2023-06-26T03:51:45;28.30;;;14.85;;
54139;SDS011;40046;53.254;5.900;2023-06-26T03:54:13;30.55;;;15.95;;
54139;SDS011;40046;53.254;5.900;2023-06-26T03:56:41;26.77;;;16.40;;
54139;SDS011;40046;53.254;5.900;2023-06-26T03:59:07;28.20;;;15.02;;
54139;SDS011;40046;53.254;5.900;2023-06-26T04:01:35;20.42;;;14.65;;
54139;SDS011;40046;53.254;5.900;2023-06-26T04:04:04;40.38;;;16.48;;
54139;SDS011;40046;53.254;5.900;2023-06-26T04:06:31;28.40;;;16.67;;
54139;SDS011;40046;53.254;5.900;2023-06-26T04:08:59;26.52;;;15.95;;
54139;SDS011;40046;53.254;5.900;2023-06-26T04:11:25;20.05;;;15.13;;
54139;SDS011;40046;53.254;5.900;2023-06-26T04:13:52;18.70;;;14.68;;
54139;SDS011;40046;53.254;5.900;2023-06-26T04:16:18;19.30;;;13.63;;
54139;SDS011;40046;53.254;5.900;2023-06-26T04:18:46;20.73;;;13.45;;
54139;SDS011;40046;53.254;5.900;2023-06-26T04:21:12;19.23;;;11.75;;
54139;SDS011;40046;53.254;5.900;2023-06-26T04:23:39;18.88;;;12.73;;
54139;SDS011;40046;53.254;5.900;2023-06-26T04:26:06;18.65;;;12.50;;
54139;SDS011;40046;53.254;5.900;2023-06-26T04:28:33;19.75;;;11.10;;
54139;SDS011;40046;53.254;5.900;2023-06-26T04:30:59;16.55;;;11.32;;
54139;SDS011;40046;53.254;5.900;2023-06-26T04:33:26;15.85;;;10.98;;
54139;SDS011;40046;53.254;5.900;2023-06-26T04:35:52;22.02;;;10.18;;
54139;SDS011;40046;53.254;5.900;2023-06-26T04:38:19;18.80;;;10.45;;
54139;SDS011;40046;53.254;5.900;2023-06-26T04:40:47;18.52;;;11.07;;
54139;SDS011;40046;53.254;5.900;2023-06-26T04:43:13;18.30;;;8.95;;
54139;SDS011;40046;53.254;5.900;2023-06-26T04:45:39;12.85;;;7.15;;
54139;SDS011;40046;53.254;5.900;2023-06-26T04:48:06;14.18;;;7.20;;
54139;SDS011;40046;53.254;5.900;2023-06-26T04:50:32;13.68;;;6.80;;
54139;SDS011;40046;53.254;5.900;2023-06-26T04:52:58;17.42;;;6.57;;
54139;SDS011;40046;53.254;5.900;2023-06-26T04:55:25;22.15;;;6.95;;
54139;SDS011;40046;53.254;5.900;2023-06-26T04:57:51;16.55;;;7.10;;
54139;SDS011;40046;53.254;5.900;2023-06-26T05:00:18;16.63;;;6.35;;
54139;SDS011;40046;53.254;5.900;2023-06-26T05:02:44;15.25;;;4.55;;
54139;SDS011;40046;53.254;5.900;2023-06-26T05:05:10;14.95;;;5.28;;
54139;SDS011;40046;53.254;5.900;2023-06-26T05:07:37;18.02;;;6.03;;
54139;SDS011;40046;53.254;5.900;2023-06-26T05:10:03;14.15;;;6.03;;
54139;SDS011;40046;53.254;5.900;2023-06-26T05:12:29;16.50;;;6.68;;
54139;SDS011;40046;53.254;5.900;2023-06-26T05:14:56;13.00;;;5.75;;
54139;SDS011;40046;53.254;5.900;2023-06-26T05:17:22;19.83;;;6.35;;
54139;SDS011;40046;53.254;5.900;2023-06-26T05:19:48;15.05;;;5.43;;
54139;SDS011;40046;53.254;5.900;2023-06-26T05:22:14;17.27;;;5.93;;
54139;SDS011;40046;53.254;5.900;2023-06-26T05:24:41;16.90;;;5.68;;
54139;SDS011;40046;53.254;5.900;2023-06-26T05:27:08;18.58;;;4.82;;
54139;SDS011;40046;53.254;5.900;2023-06-26T05:29:34;17.27;;;5.93;;
54139;SDS011;40046;53.254;5.900;2023-06-26T05:32:01;14.77;;;4.43;;
54139;SDS011;40046;53.254;5.900;2023-06-26T05:34:27;24.50;;;5.68;;
54139;SDS011;40046;53.254;5.900;2023-06-26T05:36:58;14.10;;;4.32;;
54139;SDS011;40046;53.254;5.900;2023-06-26T05:39:24;12.52;;;5.20;;
54139;SDS011;40046;53.254;5.900;2023-06-26T05:41:51;17.40;;;5.75;;
54139;SDS011;40046;53.254;5.900;2023-06-26T05:44:17;16.52;;;4.82;;
54139;SDS011;40046;53.254;5.900;2023-06-26T05:46:43;14.60;;;4.22;;
54139;SDS011;40046;53.254;5.900;2023-06-26T05:49:10;15.82;;;4.68;;
54139;SDS011;40046;53.254;5.900;2023-06-26T05:51:36;20.10;;;4.97;;
54139;SDS011;40046;53.254;5.900;2023-06-26T05:54:02;14.73;;;3.85;;
54139;SDS011;40046;53.254;5.900;2023-06-26T05:56:28;10.40;;;4.07;;
54139;SDS011;40046;53.254;5.900;2023-06-26T05:58:55;11.07;;;3.17;;
54139;SDS011;40046;53.254;5.900;2023-06-26T06:01:21;11.05;;;3.90;;
54139;SDS011;40046;53.254;5.900;2023-06-26T06:03:48;12.77;;;2.75;;
54139;SDS011;40046;53.254;5.900;2023-06-26T06:06:14;11.10;;;3.78;;
54139;SDS011;40046;53.254;5.900;2023-06-26T06:08:41;11.77;;;3.42;;
54139;SDS011;40046;53.254;5.900;2023-06-26T06:11:07;12.57;;;3.75;;
54139;SDS011;40046;53.254;5.900;2023-06-26T06:13:33;8.32;;;3.80;;
54139;SDS011;40046;53.254;5.900;2023-06-26T06:15:59;11.27;;;3.05;;
54139;SDS011;40046;53.254;5.900;2023-06-26T06:18:26;11.25;;;3.78;;
54139;SDS011;40046;53.254;5.900;2023-06-26T06:20:52;10.90;;;2.90;;
54139;SDS011;40046;53.254;5.900;2023-06-26T06:23:18;12.68;;;4.07;;
54139;SDS011;40046;53.254;5.900;2023-06-26T06:25:44;9.02;;;2.60;;
54139;SDS011;40046;53.254;5.900;2023-06-26T06:28:10;10.77;;;3.15;;
54139;SDS011;40046;53.254;5.900;2023-06-26T06:30:36;7.75;;;2.97;;
54139;SDS011;40046;53.254;5.900;2023-06-26T06:33:03;9.15;;;2.60;;
54139;SDS011;40046;53.254;5.900;2023-06-26T06:35:29;8.40;;;2.85;;
54139;SDS011;40046;53.254;5.900;2023-06-26T06:37:55;13.38;;;2.85;;
54139;SDS011;40046;53.254;5.900;2023-06-26T06:40:21;8.23;;;2.70;;
54139;SDS011;40046;53.254;5.900;2023-06-26T06:42:47;8.13;;;2.45;;
54139;SDS011;40046;53.254;5.900;2023-06-26T06:45:14;8.15;;;2.50;;
54139;SDS011;40046;53.254;5.900;2023-06-26T06:47:40;7.90;;;2.22;;
54139;SDS011;40046;53.254;5.900;2023-06-26T06:50:07;9.50;;;2.40;;
54139;SDS011;40046;53.254;5.900;2023-06-26T06:52:36;11.70;;;2.67;;
54139;SDS011;40046;53.254;5.900;2023-06-26T06:55:03;7.10;;;2.25;;
54139;SDS011;40046;53.254;5.900;2023-06-26T06:57:36;8.15;;;2.40;;
54139;SDS011;40046;53.254;5.900;2023-06-26T07:00:07;10.05;;;2.40;;
54139;SDS011;40046;53.254;5.900;2023-06-26T07:02:36;6.90;;;2.38;;
54139;SDS011;40046;53.254;5.900;2023-06-26T07:05:03;9.15;;;2.60;;
54139;SDS011;40046;53.254;5.900;2023-06-26T07:07:30;9.48;;;2.72;;
54139;SDS011;40046;53.254;5.900;2023-06-26T07:10:00;5.95;;;2.78;;
54139;SDS011;40046;53.254;5.900;2023-06-26T07:12:27;7.57;;;3.03;;
54139;SDS011;40046;53.254;5.900;2023-06-26T07:14:54;8.73;;;2.70;;
54139;SDS011;40046;53.254;5.900;2023-06-26T07:17:21;6.55;;;2.30;;
54139;SDS011;40046;53.254;5.900;2023-06-26T07:19:47;6.70;;;2.35;;
54139;SDS011;40046;53.254;5.900;2023-06-26T07:22:14;5.00;;;2.40;;
54139;SDS011;40046;53.254;5.900;2023-06-26T07:24:40;5.90;;;2.55;;
54139;SDS011;40046;53.254;5.900;2023-06-26T07:27:06;7.28;;;2.00;;
54139;SDS011;40046;53.254;5.900;2023-06-26T07:29:33;9.63;;;2.92;;
54139;SDS011;40046;53.254;5.900;2023-06-26T07:32:00;9.57;;;2.75;;
54139;SDS011;40046;53.254;5.900;2023-06-26T07:34:26;9.52;;;2.80;;
54139;SDS011;40046;53.254;5.900;2023-06-26T07:36:52;6.68;;;2.25;;
54139;SDS011;40046;53.254;5.900;2023-06-26T07:39:19;6.88;;;2.45;;
54139;SDS011;40046;53.254;5.900;2023-06-26T07:41:45;5.55;;;2.30;;
54139;SDS011;40046;53.254;5.900;2023-06-26T07:44:11;9.85;;;3.00;;
54139;SDS011;40046;53.254;5.900;2023-06-26T07:46:37;5.93;;;2.33;;
54139;SDS011;40046;53.254;5.900;2023-06-26T07:49:04;7.30;;;2.63;;
54139;SDS011;40046;53.254;5.900;2023-06-26T07:51:30;6.18;;;1.95;;
54139;SDS011;40046;53.254;5.900;2023-06-26T07:53:56;6.68;;;2.33;;
54139;SDS011;40046;53.254;5.900;2023-06-26T07:56:22;7.38;;;2.28;;
54139;SDS011;40046;53.254;5.900;2023-06-26T07:58:49;5.72;;;2.58;;
54139;SDS011;40046;53.254;5.900;2023-06-26T08:01:15;5.90;;;2.65;;
54139;SDS011;40046;53.254;5.900;2023-06-26T08:03:41;8.82;;;2.55;;
54139;SDS011;40046;53.254;5.900;2023-06-26T08:06:07;6.30;;;2.30;;
54139;SDS011;40046;53.254;5.900;2023-06-26T08:08:33;7.20;;;2.75;;
54139;SDS011;40046;53.254;5.900;2023-06-26T08:10:59;6.22;;;2.42;;
54139;SDS011;40046;53.254;5.900;2023-06-26T08:13:26;6.75;;;2.47;;
54139;SDS011;40046;53.254;5.900;2023-06-26T08:15:52;6.97;;;2.53;;
54139;SDS011;40046;53.254;5.900;2023-06-26T08:18:18;8.27;;;2.40;;
54139;SDS011;40046;53.254;5.900;2023-06-26T08:20:44;6.40;;;2.63;;
54139;SDS011;40046;53.254;5.900;2023-06-26T08:23:10;7.45;;;3.03;;
54139;SDS011;40046;53.254;5.900;2023-06-26T08:25:37;7.88;;;2.75;;
54139;SDS011;40046;53.254;5.900;2023-06-26T08:28:03;12.90;;;3.80;;
54139;SDS011;40046;53.254;5.900;2023-06-26T08:30:29;10.68;;;3.50;;
54139;SDS011;40046;53.254;5.900;2023-06-26T08:32:55;7.53;;;2.63;;
54139;SDS011;40046;53.254;5.900;2023-06-26T08:35:22;8.50;;;3.03;;
54139;SDS011;40046;53.254;5.900;2023-06-26T08:37:48;8.88;;;2.90;;
54139;SDS011;40046;53.254;5.900;2023-06-26T08:40:16;11.40;;;4.07;;
54139;SDS011;40046;53.254;5.900;2023-06-26T08:42:44;11.80;;;4.00;;
54139;SDS011;40046;53.254;5.900;2023-06-26T08:45:10;9.02;;;3.95;;
54139;SDS011;40046;53.254;5.900;2023-06-26T08:47:37;10.98;;;3.65;;
54139;SDS011;40046;53.254;5.900;2023-06-26T08:50:07;9.15;;;3.72;;
54139;SDS011;40046;53.254;5.900;2023-06-26T08:52:40;8.02;;;4.18;;
54139;SDS011;40046;53.254;5.900;2023-06-26T08:55:09;8.25;;;3.35;;
54139;SDS011;40046;53.254;5.900;2023-06-26T08:57:36;6.43;;;2.92;;
54139;SDS011;40046;53.254;5.900;2023-06-26T09:00:03;6.20;;;3.25;;
54139;SDS011;40046;53.254;5.900;2023-06-26T09:02:29;7.22;;;3.40;;
54139;SDS011;40046;53.254;5.900;2023-06-26T09:04:56;6.75;;;4.03;;
54139;SDS011;40046;53.254;5.900;2023-06-26T09:07:22;5.68;;;3.47;;
54139;SDS011;40046;53.254;5.900;2023-06-26T09:09:48;6.47;;;3.72;;
54139;SDS011;40046;53.254;5.900;2023-06-26T09:12:15;7.28;;;4.13;;
54139;SDS011;40046;53.254;5.900;2023-06-26T09:14:41;8.80;;;3.92;;
54139;SDS011;40046;53.254;5.900;2023-06-26T09:17:07;6.55;;;4.15;;
54139;SDS011;40046;53.254;5.900;2023-06-26T09:19:36;8.02;;;3.72;;
54139;SDS011;40046;53.254;5.900;2023-06-26T09:22:03;7.97;;;3.45;;
54139;SDS011;40046;53.254;5.900;2023-06-26T09:24:30;9.30;;;4.20;;
54139;SDS011;40046;53.254;5.900;2023-06-26T09:26:56;8.45;;;3.63;;
54139;SDS011;40046;53.254;5.900;2023-06-26T09:29:23;6.00;;;3.17;;
54139;SDS011;40046;53.254;5.900;2023-06-26T09:31:50;6.10;;;2.78;;
54139;SDS011;40046;53.254;5.900;2023-06-26T09:34:17;8.05;;;3.90;;
54139;SDS011;40046;53.254;5.900;2023-06-26T09:36:45;6.20;;;2.97;;
54139;SDS011;40046;53.254;5.900;2023-06-26T09:39:13;5.50;;;3.05;;
54139;SDS011;40046;53.254;5.900;2023-06-26T09:41:43;7.57;;;3.55;;
54139;SDS011;40046;53.254;5.900;2023-06-26T09:44:10;6.88;;;3.33;;
54139;SDS011;40046;53.254;5.900;2023-06-26T09:46:38;4.40;;;2.65;;
54139;SDS011;40046;53.254;5.900;2023-06-26T09:49:05;6.35;;;2.83;;
54139;SDS011;40046;53.254;5.900;2023-06-26T09:51:32;6.28;;;2.65;;
54139;SDS011;40046;53.254;5.900;2023-06-26T09:54:02;6.60;;;2.40;;
54139;SDS011;40046;53.254;5.900;2023-06-26T09:56:29;6.90;;;2.90;;
54139;SDS011;40046;53.254;5.900;2023-06-26T09:58:56;6.68;;;2.35;;
54139;SDS011;40046;53.254;5.900;2023-06-26T10:01:23;7.78;;;3.03;;
54139;SDS011;40046;53.254;5.900;2023-06-26T10:03:49;7.10;;;2.67;;
54139;SDS011;40046;53.254;5.900;2023-06-26T10:06:17;7.50;;;2.53;;
54139;SDS011;40046;53.254;5.900;2023-06-26T10:08:45;7.97;;;1.85;;
54139;SDS011;40046;53.254;5.900;2023-06-26T10:11:12;6.88;;;1.65;;
54139;SDS011;40046;53.254;5.900;2023-06-26T10:13:41;11.68;;;1.65;;
54139;SDS011;40046;53.254;5.900;2023-06-26T10:16:11;7.57;;;2.42;;
54139;SDS011;40046;53.254;5.900;2023-06-26T10:18:38;6.53;;;1.67;;
54139;SDS011;40046;53.254;5.900;2023-06-26T10:21:05;6.80;;;1.95;;
54139;SDS011;40046;53.254;5.900;2023-06-26T10:23:32;17.10;;;2.85;;
54139;SDS011;40046;53.254;5.900;2023-06-26T10:26:00;5.20;;;1.88;;
54139;SDS011;40046;53.254;5.900;2023-06-26T10:28:27;7.30;;;2.40;;
54139;SDS011;40046;53.254;5.900;2023-06-26T10:30:54;8.88;;;2.88;;
54139;SDS011;40046;53.254;5.900;2023-06-26T10:33:21;9.48;;;2.60;;
54139;SDS011;40046;53.254;5.900;2023-06-26T10:35:47;10.80;;;3.35;;
54139;SDS011;40046;53.254;5.900;2023-06-26T10:38:14;8.38;;;2.10;;
54139;SDS011;40046;53.254;5.900;2023-06-26T10:40:47;10.45;;;2.63;;
54139;SDS011;40046;53.254;5.900;2023-06-26T10:43:14;11.05;;;3.00;;
54139;SDS011;40046;53.254;5.900;2023-06-26T10:45:44;8.07;;;2.45;;
54139;SDS011;40046;53.254;5.900;2023-06-26T10:48:13;10.75;;;2.10;;
54139;SDS011;40046;53.254;5.900;2023-06-26T10:50:40;7.78;;;2.17;;
54139;SDS011;40046;53.254;5.900;2023-06-26T10:58:27;7.25;;;2.38;;
54139;SDS011;40046;53.254;5.900;2023-06-26T11:01:14;9.68;;;2.70;;
54139;SDS011;40046;53.254;5.900;2023-06-26T11:03:41;10.38;;;2.38;;
54139;SDS011;40046;53.254;5.900;2023-06-26T11:06:11;6.40;;;1.65;;
54139;SDS011;40046;53.254;5.900;2023-06-26T11:08:47;8.02;;;2.55;;
54139;SDS011;40046;53.254;5.900;2023-06-26T11:11:14;13.85;;;2.72;;
54139;SDS011;40046;53.254;5.900;2023-06-26T11:13:41;13.07;;;3.28;;
54139;SDS011;40046;53.254;5.900;2023-06-26T11:16:07;12.30;;;3.08;;
54139;SDS011;40046;53.254;5.900;2023-06-26T11:18:33;10.07;;;2.67;;
54139;SDS011;40046;53.254;5.900;2023-06-26T11:21:09;9.05;;;2.60;;
54139;SDS011;40046;53.254;5.900;2023-06-26T11:23:40;13.27;;;3.50;;
54139;SDS011;40046;53.254;5.900;2023-06-26T11:26:16;15.25;;;3.33;;
54139;SDS011;40046;53.254;5.900;2023-06-26T11:28:55;8.82;;;2.20;;
54139;SDS011;40046;53.254;5.900;2023-06-26T11:31:28;9.43;;;2.40;;
54139;SDS011;40046;53.254;5.900;2023-06-26T11:34:01;14.00;;;3.33;;
54139;SDS011;40046;53.254;5.900;2023-06-26T11:36:28;12.35;;;2.58;;
54139;SDS011;40046;53.254;5.900;2023-06-26T11:38:58;8.15;;;2.45;;
54139;SDS011;40046;53.254;5.900;2023-06-26T11:41:26;8.57;;;3.10;;
54139;SDS011;40046;53.254;5.900;2023-06-26T11:43:52;10.80;;;2.72;;
54139;SDS011;40046;53.254;5.900;2023-06-26T11:46:19;10.57;;;3.30;;
54139;SDS011;40046;53.254;5.900;2023-06-26T11:48:45;7.63;;;2.08;;
54139;SDS011;40046;53.254;5.900;2023-06-26T11:51:12;13.80;;;3.05;;
54139;SDS011;40046;53.254;5.900;2023-06-26T11:53:40;9.77;;;3.22;;
54139;SDS011;40046;53.254;5.900;2023-06-26T11:56:07;8.95;;;4.07;;
54139;SDS011;40046;53.254;5.900;2023-06-26T11:58:34;6.38;;;1.65;;
54139;SDS011;40046;53.254;5.900;2023-06-26T12:01:00;8.52;;;3.03;;
54139;SDS011;40046;53.254;5.900;2023-06-26T12:03:26;10.20;;;2.72;;
54139;SDS011;40046;53.254;5.900;2023-06-26T12:05:53;9.52;;;2.20;;
54139;SDS011;40046;53.254;5.900;2023-06-26T12:08:19;9.00;;;3.33;;
54139;SDS011;40046;53.254;5.900;2023-06-26T12:10:45;9.23;;;2.75;;
54139;SDS011;40046;53.254;5.900;2023-06-26T12:13:11;8.27;;;2.70;;
54139;SDS011;40046;53.254;5.900;2023-06-26T12:15:37;8.80;;;2.47;;
54139;SDS011;40046;53.254;5.900;2023-06-26T12:18:07;7.18;;;1.90;;
54139;SDS011;40046;53.254;5.900;2023-06-26T12:20:39;7.22;;;2.25;;
54139;SDS011;40046;53.254;5.900;2023-06-26T12:23:11;14.60;;;3.25;;
54139;SDS011;40046;53.254;5.900;2023-06-26T12:25:37;6.18;;;1.85;;
54139;SDS011;40046;53.254;5.900;2023-06-26T12:28:03;7.03;;;2.17;;
54139;SDS011;40046;53.254;5.900;2023-06-26T12:30:40;7.63;;;2.15;;
54139;SDS011;40046;53.254;5.900;2023-06-26T12:33:12;8.15;;;2.30;;
54139;SDS011;40046;53.254;5.900;2023-06-26T12:35:38;10.35;;;4.82;;
54139;SDS011;40046;53.254;5.900;2023-06-26T12:38:06;7.13;;;2.25;;
54139;SDS011;40046;53.254;5.900;2023-06-26T12:40:35;4.85;;;2.20;;
54139;SDS011;40046;53.254;5.900;2023-06-26T12:43:11;7.95;;;2.30;;
54139;SDS011;40046;53.254;5.900;2023-06-26T12:45:37;12.50;;;3.05;;
54139;SDS011;40046;53.254;5.900;2023-06-26T12:48:48;13.02;;;2.95;;
54139;SDS011;40046;53.254;5.900;2023-06-26T12:50:55;6.32;;;2.17;;
54139;SDS011;40046;53.254;5.900;2023-06-26T12:53:21;11.50;;;2.45;;
54139;SDS011;40046;53.254;5.900;2023-06-26T12:55:47;8.57;;;2.20;;
54139;SDS011;40046;53.254;5.900;2023-06-26T12:58:13;8.05;;;1.92;;
54139;SDS011;40046;53.254;5.900;2023-06-26T13:00:39;6.55;;;1.48;;
54139;SDS011;40046;53.254;5.900;2023-06-26T13:03:06;5.72;;;2.08;;
54139;SDS011;40046;53.254;5.900;2023-06-26T13:05:33;18.05;;;3.35;;
54139;SDS011;40046;53.254;5.900;2023-06-26T13:07:59;5.90;;;1.95;;
54139;SDS011;40046;53.254;5.900;2023-06-26T13:10:26;7.82;;;2.00;;
54139;SDS011;40046;53.254;5.900;2023-06-26T13:12:54;5.28;;;1.70;;
54139;SDS011;40046;53.254;5.900;2023-06-26T13:15:20;5.75;;;1.95;;
54139;SDS011;40046;53.254;5.900;2023-06-26T13:17:46;5.70;;;2.13;;
54139;SDS011;40046;53.254;5.900;2023-06-26T13:20:13;6.68;;;1.92;;
54139;SDS011;40046;53.254;5.900;2023-06-26T13:22:39;8.02;;;1.98;;
54139;SDS011;40046;53.254;5.900;2023-06-26T13:25:05;7.72;;;2.17;;
54139;SDS011;40046;53.254;5.900;2023-06-26T13:27:32;7.25;;;1.80;;
54139;SDS011;40046;53.254;5.900;2023-06-26T13:29:58;8.70;;;1.85;;
54139;SDS011;40046;53.254;5.900;2023-06-26T13:32:25;9.45;;;2.95;;
54139;SDS011;40046;53.254;5.900;2023-06-26T13:34:51;5.07;;;1.60;;
54139;SDS011;40046;53.254;5.900;2023-06-26T13:37:19;5.22;;;1.60;;
54139;SDS011;40046;53.254;5.900;2023-06-26T13:39:46;7.07;;;2.20;;
54139;SDS011;40046;53.254;5.900;2023-06-26T13:42:17;5.43;;;1.80;;
54139;SDS011;40046;53.254;5.900;2023-06-26T13:44:44;7.80;;;1.80;;
54139;SDS011;40046;53.254;5.900;2023-06-26T13:49:37;7.18;;;2.17;;
54139;SDS011;40046;53.254;5.900;2023-06-26T13:52:04;5.68;;;1.92;;
54139;SDS011;40046;53.254;5.900;2023-06-26T13:54:30;12.18;;;3.05;;
54139;SDS011;40046;53.254;5.900;2023-06-26T13:56:56;6.22;;;1.98;;
54139;SDS011;40046;53.254;5.900;2023-06-26T13:59:22;9.63;;;2.75;;
54139;SDS011;40046;53.254;5.900;2023-06-26T14:01:50;11.18;;;2.70;;
54139;SDS011;40046;53.254;5.900;2023-06-26T14:04:17;9.10;;;1.83;;
54139;SDS011;40046;53.254;5.900;2023-06-26T14:06:43;4.32;;;1.80;;
54139;SDS011;40046;53.254;5.900;2023-06-26T14:09:11;8.38;;;1.60;;
54139;SDS011;40046;53.254;5.900;2023-06-26T14:11:37;5.13;;;1.67;;
54139;SDS011;40046;53.254;5.900;2023-06-26T14:14:03;8.93;;;1.92;;
54139;SDS011;40046;53.254;5.900;2023-06-26T14:16:29;14.18;;;2.88;;
54139;SDS011;40046;53.254;5.900;2023-06-26T14:18:56;7.93;;;2.35;;
54139;SDS011;40046;53.254;5.900;2023-06-26T14:21:23;8.90;;;2.50;;
54139;SDS011;40046;53.254;5.900;2023-06-26T14:23:49;7.57;;;1.70;;
54139;SDS011;40046;53.254;5.900;2023-06-26T14:26:15;9.82;;;2.60;;
54139;SDS011;40046;53.254;5.900;2023-06-26T14:28:42;7.43;;;2.35;;
54139;SDS011;40046;53.254;5.900;2023-06-26T14:31:08;7.80;;;2.35;;
54139;SDS011;40046;53.254;5.900;2023-06-26T14:33:34;5.30;;;1.77;;
54139;SDS011;40046;53.254;5.900;2023-06-26T14:36:00;12.68;;;3.00;;
54139;SDS011;40046;53.254;5.900;2023-06-26T14:38:26;9.40;;;2.33;;
54139;SDS011;40046;53.254;5.900;2023-06-26T14:40:53;10.48;;;2.80;;
54139;SDS011;40046;53.254;5.900;2023-06-26T14:43:19;11.52;;;1.98;;
54139;SDS011;40046;53.254;5.900;2023-06-26T14:45:45;9.05;;;2.97;;
54139;SDS011;40046;53.254;5.900;2023-06-26T14:48:11;7.78;;;2.28;;
54139;SDS011;40046;53.254;5.900;2023-06-26T14:50:37;9.10;;;2.28;;